Time;durP1;ratioP1;P1;durP2;ratioP2;P2;SDS_P1;SDS_P2;PMS_P1;PMS_P2;Temp;Humidity;BMP_temperature;BMP_pressure;BME280_temperature;BME280_humidity;BME280_pressure;Samples;Min_cycle;Max_cycle;Signal;HPM_P1;HPM_P2
2022/04/02 00:00:44;;;;;;;13.50;1.50;;;;;;;;;;5112394;28;20231;-70
2022/04/02 00:03:12;;;;;;;17.30;2.40;;;;;;;;;;5112192;28;20290;-70
2022/04/02 00:05:39;;;;;;;18.00;2.10;;;;;;;;;;5111666;28;20203;-70
2022/04/02 00:08:08;;;;;;;12.32;1.90;;;;;;;;;;5111249;28;20224;-70
2022/04/02 00:10:36;;;;;;;13.65;1.52;;;;;;;;;;5111683;28;20212;-70
2022/04/02 00:13:04;;;;;;;25.27;4.00;;;;;;;;;;5111400;28;20238;-70
2022/04/02 00:15:31;;;;;;;15.35;2.28;;;;;;;;;;5111617;28;20452;-70
2022/04/02 00:17:59;;;;;;;14.05;1.58;;;;;;;;;;5111165;28;20264;-69
2022/04/02 00:20:26;;;;;;;12.45;1.73;;;;;;;;;;5111504;28;20347;-70
2022/04/02 00:25:41;;;;;;;12.63;1.63;;;;;;;;;;5111481;28;20285;-69
2022/04/02 00:28:09;;;;;;;12.25;1.75;;;;;;;;;;5111286;28;20196;-69
2022/04/02 00:30:36;;;;;;;13.60;1.63;;;;;;;;;;5111515;28;20683;-69
2022/04/02 00:33:04;;;;;;;14.85;2.25;;;;;;;;;;5111387;28;20209;-69
2022/04/02 00:35:32;;;;;;;11.23;1.30;;;;;;;;;;5111228;28;20204;-69
2022/04/02 00:37:59;;;;;;;12.23;1.17;;;;;;;;;;5111136;28;20210;-69
2022/04/02 00:40:26;;;;;;;16.33;1.60;;;;;;;;;;5111358;28;20227;-69
2022/04/02 00:42:56;;;;;;;12.65;1.40;;;;;;;;;;5111196;28;20211;-69
2022/04/02 00:45:23;;;;;;;19.20;1.97;;;;;;;;;;5110864;28;20255;-69
2022/04/02 00:47:51;;;;;;;12.07;1.50;;;;;;;;;;5111131;28;20495;-69
2022/04/02 00:50:18;;;;;;;16.47;1.70;;;;;;;;;;5111074;28;20212;-69
2022/04/02 00:52:46;;;;;;;13.13;1.50;;;;;;;;;;5111118;28;20458;-69
2022/04/02 00:55:13;;;;;;;20.60;2.30;;;;;;;;;;5084342;28;20447;-69
2022/04/02 00:57:41;;;;;;;14.77;1.55;;;;;;;;;;5091589;28;20447;-69
2022/04/02 01:00:12;;;;;;;13.53;1.40;;;;;;;;;;5091400;28;20695;-69
2022/04/02 01:02:40;;;;;;;13.53;1.67;;;;;;;;;;5091722;28;20458;-69
2022/04/02 01:05:08;;;;;;;19.20;2.30;;;;;;;;;;5091298;28;20521;-69
2022/04/02 01:07:36;;;;;;;15.70;1.77;;;;;;;;;;5091018;28;20223;-69
2022/04/02 01:10:03;;;;;;;14.60;1.75;;;;;;;;;;5091285;28;20675;-69
2022/04/02 01:12:30;;;;;;;13.65;1.63;;;;;;;;;;5091401;28;20285;-69
2022/04/02 01:14:58;;;;;;;15.60;2.45;;;;;;;;;;5091264;28;20204;-69
2022/04/02 01:17:28;;;;;;;14.32;1.70;;;;;;;;;;5090834;28;20232;-69
2022/04/02 01:19:55;;;;;;;13.98;1.73;;;;;;;;;;5084573;28;20232;-69
2022/04/02 01:22:24;;;;;;;12.65;1.52;;;;;;;;;;5091466;28;20196;-70
2022/04/02 01:24:51;;;;;;;15.35;1.92;;;;;;;;;;5091046;28;20774;-69
2022/04/02 01:27:19;;;;;;;17.75;2.50;;;;;;;;;;5091372;28;20235;-69
2022/04/02 01:29:46;;;;;;;12.48;1.55;;;;;;;;;;5093270;28;20200;-69
2022/04/02 01:32:14;;;;;;;14.55;2.63;;;;;;;;;;5095148;28;20203;-69
2022/04/02 01:34:42;;;;;;;14.07;2.35;;;;;;;;;;5095493;28;20205;-69
2022/04/02 01:37:09;;;;;;;11.68;1.70;;;;;;;;;;5094928;28;20752;-69
2022/04/02 01:39:38;;;;;;;15.88;1.85;;;;;;;;;;5094891;28;20289;-69
2022/04/02 01:42:07;;;;;;;11.93;1.73;;;;;;;;;;5088487;28;20204;-69
2022/04/02 01:44:34;;;;;;;14.18;1.88;;;;;;;;;;5094939;28;20210;-69
2022/04/02 01:47:02;;;;;;;12.88;1.40;;;;;;;;;;5095182;28;20223;-69
2022/04/02 01:49:29;;;;;;;14.07;1.80;;;;;;;;;;5094898;28;20207;-69
2022/04/02 01:51:57;;;;;;;12.85;1.67;;;;;;;;;;5094860;28;20204;-69
2022/04/02 01:54:25;;;;;;;12.65;1.90;;;;;;;;;;5094863;28;20712;-69
2022/04/02 01:56:54;;;;;;;15.00;2.75;;;;;;;;;;5094741;28;20196;-69
2022/04/02 01:59:21;;;;;;;16.55;1.77;;;;;;;;;;5094405;28;20710;-69
2022/04/02 02:01:48;;;;;;;17.23;2.25;;;;;;;;;;5094622;28;20711;-70
2022/04/02 02:04:16;;;;;;;10.65;1.55;;;;;;;;;;5094451;28;20199;-69
2022/04/02 02:06:45;;;;;;;18.77;2.35;;;;;;;;;;5114149;28;20205;-70
2022/04/02 02:09:13;;;;;;;18.75;3.00;;;;;;;;;;5113607;28;20234;-69
2022/04/02 02:11:42;;;;;;;20.58;2.25;;;;;;;;;;5109582;28;20203;-69
2022/04/02 02:14:10;;;;;;;12.80;1.70;;;;;;;;;;5094420;28;20208;-69
2022/04/02 02:16:38;;;;;;;13.63;2.15;;;;;;;;;;5094223;28;20201;-69
2022/04/02 02:19:05;;;;;;;12.27;2.00;;;;;;;;;;5093916;28;20243;-69
2022/04/02 02:21:32;;;;;;;18.50;2.08;;;;;;;;;;5094256;28;20220;-69
2022/04/02 02:24:00;;;;;;;14.45;2.15;;;;;;;;;;5094138;28;20205;-69
2022/04/02 02:26:28;;;;;;;16.13;2.72;;;;;;;;;;5094171;28;20204;-69
2022/04/02 02:28:55;;;;;;;13.27;1.90;;;;;;;;;;5094434;28;20232;-69
2022/04/02 02:31:24;;;;;;;13.60;1.70;;;;;;;;;;5093912;28;20208;-69
2022/04/02 02:36:33;;;;;;;13.43;1.80;;;;;;;;;;5049131;28;20203;-69
2022/04/02 02:39:00;;;;;;;14.77;2.03;;;;;;;;;;5093648;28;20208;-69
2022/04/02 02:41:29;;;;;;;13.00;1.92;;;;;;;;;;5093360;28;20223;-69
2022/04/02 02:43:56;;;;;;;12.68;2.55;;;;;;;;;;5094159;28;20294;-69
2022/04/02 02:46:25;;;;;;;13.98;2.33;;;;;;;;;;5093927;28;20721;-69
2022/04/02 02:48:52;;;;;;;13.77;2.53;;;;;;;;;;5093937;28;20621;-69
2022/04/02 02:51:19;;;;;;;20.80;3.58;;;;;;;;;;5093365;28;20207;-69
2022/04/02 02:53:47;;;;;;;19.13;2.60;;;;;;;;;;5093675;28;20207;-69
2022/04/02 02:56:14;;;;;;;18.33;3.03;;;;;;;;;;5093702;28;20337;-69
2022/04/02 02:58:42;;;;;;;12.75;2.30;;;;;;;;;;5093540;28;20207;-69
2022/04/02 03:01:11;;;;;;;22.38;3.65;;;;;;;;;;5113104;28;20239;-69
2022/04/02 03:03:40;;;;;;;12.90;2.33;;;;;;;;;;5112980;28;20583;-69
2022/04/02 03:06:08;;;;;;;13.77;1.90;;;;;;;;;;5113152;28;20199;-69
2022/04/02 03:08:36;;;;;;;22.35;2.38;;;;;;;;;;5112742;28;20234;-69
2022/04/02 03:11:03;;;;;;;16.98;2.58;;;;;;;;;;5112699;28;20201;-69
2022/04/02 03:13:31;;;;;;;12.02;1.70;;;;;;;;;;5112744;28;20657;-69
2022/04/02 03:15:59;;;;;;;13.80;2.47;;;;;;;;;;5112810;28;20203;-69
2022/04/02 03:18:26;;;;;;;18.00;2.90;;;;;;;;;;5112684;28;20693;-69
2022/04/02 03:20:55;;;;;;;11.68;1.88;;;;;;;;;;5112714;28;20227;-69
2022/04/02 03:23:22;;;;;;;12.77;2.00;;;;;;;;;;5112756;28;20294;-70
2022/04/02 03:25:50;;;;;;;12.95;1.85;;;;;;;;;;5113149;28;20211;-69
2022/04/02 03:28:18;;;;;;;16.48;3.25;;;;;;;;;;5112607;28;20195;-69
2022/04/02 03:30:45;;;;;;;12.52;2.33;;;;;;;;;;5112558;28;20203;-69
2022/04/02 03:33:14;;;;;;;24.33;3.10;;;;;;;;;;5112159;28;20205;-69
2022/04/02 03:35:43;;;;;;;11.55;1.90;;;;;;;;;;5112476;28;20294;-69
2022/04/02 03:38:12;;;;;;;14.02;2.80;;;;;;;;;;5112605;28;20554;-69
2022/04/02 03:40:41;;;;;;;17.38;2.72;;;;;;;;;;5112368;28;20223;-69
2022/04/02 03:43:08;;;;;;;17.08;2.50;;;;;;;;;;5112052;28;20199;-69
2022/04/02 03:45:36;;;;;;;14.85;1.92;;;;;;;;;;5112234;28;20203;-69
2022/04/02 03:48:03;;;;;;;12.07;2.33;;;;;;;;;;5112293;28;20196;-69
2022/04/02 03:50:32;;;;;;;17.38;2.25;;;;;;;;;;5112188;28;20697;-69
2022/04/02 03:53:00;;;;;;;12.55;2.00;;;;;;;;;;5111142;28;20686;-69
2022/04/02 03:55:29;;;;;;;12.02;2.00;;;;;;;;;;5112070;28;20203;-69
2022/04/02 03:57:56;;;;;;;20.98;2.17;;;;;;;;;;5111951;28;20211;-69
2022/04/02 04:00:24;;;;;;;12.93;2.20;;;;;;;;;;5112029;28;20223;-69
2022/04/02 04:02:52;;;;;;;11.23;1.63;;;;;;;;;;5111943;28;20239;-69
2022/04/02 04:05:19;;;;;;;20.20;3.22;;;;;;;;;;5111493;28;20202;-69
2022/04/02 04:07:47;;;;;;;13.10;2.20;;;;;;;;;;5111506;28;20251;-69
2022/04/02 04:10:15;;;;;;;11.65;2.10;;;;;;;;;;5111748;28;20674;-69
2022/04/02 04:12:44;;;;;;;12.60;2.00;;;;;;;;;;5111753;28;20231;-69
2022/04/02 04:15:12;;;;;;;17.17;2.92;;;;;;;;;;5084895;28;20245;-69
2022/04/02 04:17:41;;;;;;;12.48;1.92;;;;;;;;;;5092045;28;20605;-69
2022/04/02 04:20:09;;;;;;;14.82;1.90;;;;;;;;;;5092216;28;20237;-69
2022/04/02 04:22:37;;;;;;;13.35;2.08;;;;;;;;;;5092145;28;20227;-69
2022/04/02 04:25:09;;;;;;;17.98;2.30;;;;;;;;;;5091769;28;20200;-69
2022/04/02 04:27:37;;;;;;;13.35;2.03;;;;;;;;;;5092207;28;20216;-69
2022/04/02 04:30:07;;;;;;;13.88;1.83;;;;;;;;;;5092388;28;20237;-69
2022/04/02 04:32:34;;;;;;;18.08;2.55;;;;;;;;;;5091932;28;20208;-69
2022/04/02 04:35:02;;;;;;;14.65;3.15;;;;;;;;;;5091725;28;20234;-69
2022/04/02 04:37:29;;;;;;;14.75;3.05;;;;;;;;;;5091740;28;20200;-69
2022/04/02 04:39:57;;;;;;;19.48;4.95;;;;;;;;;;5091953;28;20214;-69
2022/04/02 04:42:25;;;;;;;14.10;2.40;;;;;;;;;;5091852;28;20237;-69
2022/04/02 04:44:52;;;;;;;14.13;1.83;;;;;;;;;;5091621;28;20219;-69
2022/04/02 04:47:21;;;;;;;19.37;2.83;;;;;;;;;;5091315;28;20219;-69
2022/04/02 04:49:49;;;;;;;15.10;2.80;;;;;;;;;;5091857;28;20497;-69
2022/04/02 04:52:16;;;;;;;15.43;2.93;;;;;;;;;;5091409;28;21014;-69
2022/04/02 04:54:44;;;;;;;17.67;4.03;;;;;;;;;;5091657;28;20444;-69
2022/04/02 04:57:12;;;;;;;60.13;18.93;;;;;;;;;;5091365;28;20456;-69
2022/04/02 04:59:41;;;;;;;53.10;16.00;;;;;;;;;;5091491;28;20976;-70
2022/04/02 05:02:12;;;;;;;43.77;11.87;;;;;;;;;;5091384;28;20846;-70
2022/04/02 05:04:41;;;;;;;17.03;3.07;;;;;;;;;;5091196;28;21003;-70
2022/04/02 05:07:08;;;;;;;25.83;5.20;;;;;;;;;;5084788;28;20803;-70
2022/04/02 05:09:38;;;;;;;18.13;3.97;;;;;;;;;;5091266;28;20541;-70
2022/04/02 05:12:06;;;;;;;18.67;3.67;;;;;;;;;;5091412;28;20446;-70
2022/04/02 05:14:34;;;;;;;15.43;3.00;;;;;;;;;;5091308;28;20980;-70
2022/04/02 05:17:02;;;;;;;13.90;2.00;;;;;;;;;;5090984;28;20841;-70
2022/04/02 05:19:29;;;;;;;12.77;1.93;;;;;;;;;;5091299;28;20808;-70
2022/04/02 05:21:58;;;;;;;14.97;2.00;;;;;;;;;;5091383;28;20477;-70
2022/04/02 05:24:26;;;;;;;14.63;1.93;;;;;;;;;;5091375;28;20445;-70
2022/04/02 05:26:53;;;;;;;15.27;2.00;;;;;;;;;;5091257;28;20814;-70
2022/04/02 05:29:21;;;;;;;14.10;2.10;;;;;;;;;;5091064;28;20442;-70
2022/04/02 05:31:48;;;;;;;15.90;2.00;;;;;;;;;;5084228;28;20449;-70
2022/04/02 05:34:16;;;;;;;15.53;1.57;;;;;;;;;;5091253;28;20446;-70
2022/04/02 05:36:44;;;;;;;14.13;2.10;;;;;;;;;;5091207;28;20456;-70
2022/04/02 05:39:13;;;;;;;22.17;3.60;;;;;;;;;;5090848;28;20455;-70
2022/04/02 05:41:40;;;;;;;18.50;3.90;;;;;;;;;;5089972;28;20993;-70
2022/04/02 05:44:08;;;;;;;17.33;3.90;;;;;;;;;;5090952;28;20461;-70
2022/04/02 05:46:35;;;;;;;18.77;4.50;;;;;;;;;;5091255;28;20438;-72
2022/04/02 05:49:03;;;;;;;27.47;5.10;;;;;;;;;;5090981;28;20446;-70
2022/04/02 05:51:32;;;;;;;19.00;5.17;;;;;;;;;;5090944;28;20457;-70
2022/04/02 05:53:59;;;;;;;16.60;4.00;;;;;;;;;;5090798;28;20450;-70
2022/04/02 05:56:28;;;;;;;12.40;1.93;;;;;;;;;;5110491;28;20445;-70
2022/04/02 05:58:56;;;;;;;13.50;1.90;;;;;;;;;;5110504;28;20445;-70
2022/04/02 06:01:24;;;;;;;14.50;2.20;;;;;;;;;;5110257;28;20484;-70
2022/04/02 06:03:51;;;;;;;16.40;1.87;;;;;;;;;;5110298;28;20953;-70
2022/04/02 06:06:19;;;;;;;14.40;1.80;;;;;;;;;;5110155;28;20447;-70
2022/04/02 06:08:47;;;;;;;15.73;2.37;;;;;;;;;;5109930;28;20993;-70
2022/04/02 06:11:15;;;;;;;18.60;2.50;;;;;;;;;;5109968;28;20949;-72
2022/04/02 06:13:43;;;;;;;16.20;2.10;;;;;;;;;;5109194;28;20452;-72
2022/04/02 06:16:11;;;;;;;13.27;1.60;;;;;;;;;;5112846;28;20464;-72
2022/04/02 06:18:38;;;;;;;17.03;2.43;;;;;;;;;;5114032;28;20479;-72
2022/04/02 06:21:06;;;;;;;16.73;2.50;;;;;;;;;;5113655;28;20482;-72
2022/04/02 06:23:34;;;;;;;13.83;1.80;;;;;;;;;;5113909;28;20992;-73
2022/04/02 06:26:02;;;;;;;19.77;2.30;;;;;;;;;;5113710;28;20473;-72
2022/04/02 06:28:29;;;;;;;13.20;1.63;;;;;;;;;;5114060;28;20450;-72
2022/04/02 06:30:58;;;;;;;17.87;2.13;;;;;;;;;;5113567;28;20819;-72
2022/04/02 06:33:25;;;;;;;14.40;2.00;;;;;;;;;;5113342;28;20969;-70
2022/04/02 06:35:53;;;;;;;13.83;1.70;;;;;;;;;;5113515;28;20971;-71
2022/04/02 06:38:21;;;;;;;12.07;1.70;;;;;;;;;;5113422;28;20508;-71
2022/04/02 06:40:48;;;;;;;18.20;2.53;;;;;;;;;;5112982;28;20439;-71
2022/04/02 06:43:16;;;;;;;17.00;2.10;;;;;;;;;;5113496;28;20483;-71
2022/04/02 06:45:44;;;;;;;13.03;1.50;;;;;;;;;;5113653;28;20555;-71
2022/04/02 06:48:14;;;;;;;12.87;1.60;;;;;;;;;;5113314;28;20443;-71
2022/04/02 06:50:42;;;;;;;12.80;1.40;;;;;;;;;;5113283;28;20449;-71
2022/04/02 06:53:09;;;;;;;14.80;1.60;;;;;;;;;;5112875;28;20476;-71
2022/04/02 06:55:36;;;;;;;14.07;1.70;;;;;;;;;;5113374;28;20447;-71
2022/04/02 06:58:04;;;;;;;13.23;1.50;;;;;;;;;;5113133;28;20448;-71
2022/04/02 07:00:32;;;;;;;14.77;2.17;;;;;;;;;;5113197;28;20457;-71
2022/04/02 07:03:00;;;;;;;12.50;1.40;;;;;;;;;;5112221;28;20851;-71
2022/04/02 07:05:29;;;;;;;13.23;1.60;;;;;;;;;;5113202;28;20464;-71
2022/04/02 07:07:56;;;;;;;12.53;1.30;;;;;;;;;;5112973;28;20476;-70
2022/04/02 07:10:24;;;;;;;14.90;1.77;;;;;;;;;;5112839;28;20445;-71
2022/04/02 07:12:51;;;;;;;12.93;1.40;;;;;;;;;;5113001;28;20441;-73
2022/04/02 07:15:18;;;;;;;22.40;2.90;;;;;;;;;;5112663;28;20445;-71
2022/04/02 07:17:46;;;;;;;13.23;1.40;;;;;;;;;;5112645;28;20492;-72
2022/04/02 07:20:19;;;;;;;15.13;1.97;;;;;;;;;;5112530;28;20449;-71
2022/04/02 07:22:49;;;;;;;16.17;2.03;;;;;;;;;;5112592;28;20489;-71
2022/04/02 07:25:19;;;;;;;21.53;2.90;;;;;;;;;;5112281;28;20823;-71
2022/04/02 07:27:46;;;;;;;13.53;1.50;;;;;;;;;;5112588;28;20445;-71
2022/04/02 07:30:14;;;;;;;12.30;1.40;;;;;;;;;;5112551;28;20954;-71
2022/04/02 07:32:41;;;;;;;14.73;2.03;;;;;;;;;;5112735;28;20957;-71
2022/04/02 07:35:11;;;;;;;13.20;1.87;;;;;;;;;;5112534;28;20824;-71
2022/04/02 07:37:46;;;;;;;13.97;1.77;;;;;;;;;;5112554;28;20455;-71
2022/04/02 07:40:19;;;;;;;12.00;1.40;;;;;;;;;;5112328;28;20447;-72
2022/04/02 07:42:51;;;;;;;13.23;1.50;;;;;;;;;;5112264;28;20476;-71
2022/04/02 07:45:21;;;;;;;19.70;3.00;;;;;;;;;;5111994;28;20479;-71
2022/04/02 07:47:54;;;;;;;13.60;1.50;;;;;;;;;;5112322;28;20452;-71
2022/04/02 07:50:24;;;;;;;12.03;1.40;;;;;;;;;;5112158;28;20491;-71
2022/04/02 07:52:55;;;;;;;13.20;1.60;;;;;;;;;;5112325;28;20542;-71
2022/04/02 07:55:25;;;;;;;13.50;1.63;;;;;;;;;;5111765;28;20468;-71
2022/04/02 07:57:53;;;;;;;13.00;1.60;;;;;;;;;;5112000;28;20453;-71
2022/04/02 08:00:21;;;;;;;14.50;1.80;;;;;;;;;;5112152;28;20525;-71
2022/04/02 08:02:49;;;;;;;15.23;1.87;;;;;;;;;;5111861;28;20469;-71
2022/04/02 08:05:18;;;;;;;18.33;2.80;;;;;;;;;;5111632;28;20802;-71
2022/04/02 08:07:49;;;;;;;14.03;1.83;;;;;;;;;;5111664;28;20554;-71
2022/04/02 08:10:17;;;;;;;12.20;1.40;;;;;;;;;;5111787;28;20456;-71
2022/04/02 08:12:47;;;;;;;13.20;1.77;;;;;;;;;;5111863;28;20449;-71
2022/04/02 08:15:16;;;;;;;18.53;2.60;;;;;;;;;;5111564;28;20448;-71
2022/04/02 08:17:44;;;;;;;12.13;1.40;;;;;;;;;;5111843;28;20461;-71
2022/04/02 08:20:12;;;;;;;13.37;1.50;;;;;;;;;;5111719;28;20429;-71
2022/04/02 08:22:39;;;;;;;14.10;1.60;;;;;;;;;;5111297;28;20488;-73
2022/04/02 08:25:08;;;;;;;13.30;1.50;;;;;;;;;;5111321;28;20437;-73
2022/04/02 08:27:39;;;;;;;15.17;1.40;;;;;;;;;;5111069;28;20547;-73
2022/04/02 08:30:09;;;;;;;14.13;1.40;;;;;;;;;;5111561;28;20457;-73
2022/04/02 08:32:51;;;;;;;14.43;1.50;;;;;;;;;;5111446;28;20926;-72
2022/04/02 08:35:22;;;;;;;19.50;2.47;;;;;;;;;;5056264;28;20448;-70
2022/04/02 08:37:59;;;;;;;14.27;1.53;;;;;;;;;;5110795;28;20449;-70
2022/04/02 08:40:45;;;;;;;15.20;1.40;;;;;;;;;;5111190;28;20972;-71
2022/04/02 08:43:23;;;;;;;19.50;2.40;;;;;;;;;;5110881;28;20541;-70
2022/04/02 08:45:58;;;;;;;14.97;1.50;;;;;;;;;;5111718;28;20440;-70
2022/04/02 08:48:29;;;;;;;14.37;1.40;;;;;;;;;;5083843;28;20437;-70
2022/04/02 08:51:04;;;;;;;16.80;1.93;;;;;;;;;;5091739;28;20446;-70
2022/04/02 08:53:44;;;;;;;13.07;1.40;;;;;;;;;;5084706;28;20460;-71
2022/04/02 08:56:18;;;;;;;13.47;1.43;;;;;;;;;;5091466;28;20997;-71
2022/04/02 08:58:58;;;;;;;14.13;1.47;;;;;;;;;;5085800;28;20502;-71
2022/04/02 09:01:28;;;;;;;14.50;1.70;;;;;;;;;;5086400;28;20593;-71
2022/04/02 09:04:10;;;;;;;13.97;1.80;;;;;;;;;;5091327;28;20913;-71
2022/04/02 09:06:59;;;;;;;13.53;1.20;;;;;;;;;;5091829;28;20455;-71
2022/04/02 09:09:39;;;;;;;15.00;1.30;;;;;;;;;;5091011;28;20473;-71
2022/04/02 09:12:31;;;;;;;12.83;1.10;;;;;;;;;;5091355;28;20461;-71
2022/04/02 09:15:08;;;;;;;13.43;1.30;;;;;;;;;;5066834;28;20455;-71
2022/04/02 09:17:38;;;;;;;13.27;1.30;;;;;;;;;;5091356;28;20476;-71
2022/04/02 09:20:14;;;;;;;13.70;1.50;;;;;;;;;;5091222;28;20449;-71
2022/04/02 09:22:51;;;;;;;12.73;1.20;;;;;;;;;;5091526;28;20830;-71
2022/04/02 09:25:37;;;;;;;20.63;2.60;;;;;;;;;;5090943;28;20448;-71
2022/04/02 09:28:13;;;;;;;12.47;1.10;;;;;;;;;;5091220;28;20452;-71
2022/04/02 09:31:10;;;;;;;14.27;1.57;;;;;;;;;;5091113;28;20452;-71
2022/04/02 09:33:53;;;;;;;12.53;1.30;;;;;;;;;;5090959;28;20941;-71
2022/04/02 09:36:29;;;;;;;12.00;1.00;;;;;;;;;;5087384;28;20453;-71
2022/04/02 09:39:07;;;;;;;13.13;1.20;;;;;;;;;;5090999;28;20952;-71
2022/04/02 09:41:42;;;;;;;13.33;1.40;;;;;;;;;;5090956;28;20966;-71
2022/04/02 09:44:21;;;;;;;13.20;1.37;;;;;;;;;;5091313;28;20831;-71
2022/04/02 09:47:06;;;;;;;14.97;1.30;;;;;;;;;;5091081;28;20826;-71
2022/04/02 09:49:36;;;;;;;12.93;1.47;;;;;;;;;;5091128;28;20562;-71
2022/04/02 09:52:07;;;;;;;13.90;1.37;;;;;;;;;;5094818;28;20453;-71
2022/04/02 09:54:39;;;;;;;12.27;1.10;;;;;;;;;;5094738;28;20463;-72
2022/04/02 09:57:10;;;;;;;13.83;1.40;;;;;;;;;;5094460;28;20900;-71
2022/04/02 09:59:57;;;;;;;12.50;1.40;;;;;;;;;;5094908;28;20524;-71
2022/04/02 10:02:30;;;;;;;11.70;1.00;;;;;;;;;;5094484;28;20868;-71
2022/04/02 10:05:03;;;;;;;20.30;1.30;;;;;;;;;;5094851;28;20449;-71
2022/04/02 10:07:34;;;;;;;18.60;2.37;;;;;;;;;;5094465;28;20450;-71
2022/04/02 10:10:02;;;;;;;13.80;1.77;;;;;;;;;;5094773;28;20437;-71
2022/04/02 10:12:32;;;;;;;12.50;1.10;;;;;;;;;;5094497;28;20515;-71
2022/04/02 10:15:03;;;;;;;13.07;1.20;;;;;;;;;;5094319;28;20503;-71
2022/04/02 10:17:31;;;;;;;12.50;1.03;;;;;;;;;;5094297;28;20508;-71
2022/04/02 10:19:59;;;;;;;14.10;1.30;;;;;;;;;;5094641;28;20462;-71
2022/04/02 10:22:37;;;;;;;12.40;1.13;;;;;;;;;;5094267;28;20485;-71
2022/04/02 10:25:08;;;;;;;13.13;1.20;;;;;;;;;;5094080;28;20516;-71
2022/04/02 10:27:36;;;;;;;12.47;1.17;;;;;;;;;;5094181;28;20460;-71
2022/04/02 10:30:09;;;;;;;17.00;1.70;;;;;;;;;;5094146;28;20969;-71
2022/04/02 10:32:51;;;;;;;13.47;1.20;;;;;;;;;;5094018;28;20455;-71
2022/04/02 10:35:20;;;;;;;17.20;1.97;;;;;;;;;;5093825;28;20448;-71
2022/04/02 10:37:57;;;;;;;12.37;1.10;;;;;;;;;;5093885;28;20491;-71
2022/04/02 10:40:30;;;;;;;11.90;1.00;;;;;;;;;;5094162;28;20905;-71
2022/04/02 10:43:02;;;;;;;13.87;1.10;;;;;;;;;;5093809;28;20488;-71
2022/04/02 10:45:31;;;;;;;13.90;1.37;;;;;;;;;;5093995;28;20462;-71
2022/04/02 10:47:59;;;;;;;13.40;1.27;;;;;;;;;;5093790;28;20467;-71
2022/04/02 10:50:28;;;;;;;13.20;1.30;;;;;;;;;;5093634;28;20453;-71
2022/04/02 10:52:56;;;;;;;15.70;1.17;;;;;;;;;;5093609;28;20456;-71
2022/04/02 10:55:24;;;;;;;11.87;1.00;;;;;;;;;;5093510;28;20467;-71
2022/04/02 10:57:53;;;;;;;13.77;1.10;;;;;;;;;;5093616;28;20991;-71
2022/04/02 11:00:21;;;;;;;12.20;1.10;;;;;;;;;;5112925;28;20459;-71
2022/04/02 11:02:50;;;;;;;15.70;1.20;;;;;;;;;;5112261;28;20479;-71
2022/04/02 11:05:18;;;;;;;17.80;2.13;;;;;;;;;;5112491;28;20505;-71
2022/04/02 11:07:49;;;;;;;11.60;1.00;;;;;;;;;;5112712;28;20540;-72
2022/04/02 11:10:17;;;;;;;13.50;1.40;;;;;;;;;;5112777;28;21018;-72
2022/04/02 11:12:46;;;;;;;16.50;3.30;;;;;;;;;;5112907;28;20454;-72
2022/04/02 11:15:16;;;;;;;16.73;2.07;;;;;;;;;;5112804;28;20439;-72
2022/04/02 11:17:46;;;;;;;13.73;1.20;;;;;;;;;;5112466;28;20481;-72
2022/04/02 11:20:15;;;;;;;13.03;1.20;;;;;;;;;;5113170;28;20475;-72
2022/04/02 11:22:51;;;;;;;16.67;1.77;;;;;;;;;;5112458;28;20490;-72
2022/04/02 11:25:22;;;;;;;20.47;2.93;;;;;;;;;;5111807;28;20895;-72
2022/04/02 11:27:50;;;;;;;12.30;1.30;;;;;;;;;;5112406;28;20454;-72
2022/04/02 11:30:20;;;;;;;16.93;3.80;;;;;;;;;;5112401;28;20444;-72
2022/04/02 11:32:48;;;;;;;11.97;1.13;;;;;;;;;;5086559;28;20454;-72
2022/04/02 11:35:18;;;;;;;17.00;2.07;;;;;;;;;;5092744;28;20450;-72
2022/04/02 11:37:56;;;;;;;12.40;1.10;;;;;;;;;;5092833;28;20445;-72
2022/04/02 11:40:27;;;;;;;13.40;1.20;;;;;;;;;;5085953;28;20452;-72
2022/04/02 11:42:55;;;;;;;14.00;1.30;;;;;;;;;;5092933;28;20489;-72
2022/04/02 11:45:24;;;;;;;11.50;0.93;;;;;;;;;;5104512;28;20444;-72
2022/04/02 11:47:52;;;;;;;12.30;1.20;;;;;;;;;;5112047;28;20946;-72
2022/04/02 11:50:25;;;;;;;12.83;1.20;;;;;;;;;;5112076;28;20449;-72
2022/04/02 11:52:53;;;;;;;12.80;1.60;;;;;;;;;;5111979;28;20506;-72
2022/04/02 11:55:21;;;;;;;12.60;1.40;;;;;;;;;;5111686;28;20446;-72
2022/04/02 11:57:58;;;;;;;13.40;1.60;;;;;;;;;;5112099;28;20453;-73
2022/04/02 12:00:28;;;;;;;13.30;1.30;;;;;;;;;;5111892;28;20459;-73
2022/04/02 12:02:56;;;;;;;12.13;1.20;;;;;;;;;;5111752;28;20480;-72
2022/04/02 12:05:48;;;;;;;14.10;1.70;;;;;;;;;;5111522;28;20471;-72
2022/04/02 12:08:31;;;;;;;14.20;1.37;;;;;;;;;;5111631;28;20465;-72
2022/04/02 12:10:59;;;;;;;12.57;1.20;;;;;;;;;;5111805;28;20446;-72
2022/04/02 12:13:26;;;;;;;11.83;1.00;;;;;;;;;;5111124;28;20857;-72
2022/04/02 12:16:08;;;;;;;18.07;2.10;;;;;;;;;;5111429;28;20456;-72
2022/04/02 12:18:35;;;;;;;13.87;1.20;;;;;;;;;;5111349;28;20542;-72
2022/04/02 12:21:04;;;;;;;12.90;1.23;;;;;;;;;;5111190;28;20941;-73
2022/04/02 12:23:33;;;;;;;12.40;1.20;;;;;;;;;;5111532;28;20477;-72
2022/04/02 12:26:01;;;;;;;13.40;1.20;;;;;;;;;;5111395;28;20445;-72
2022/04/02 12:28:28;;;;;;;12.70;1.10;;;;;;;;;;5111512;28;20468;-72
2022/04/02 12:31:04;;;;;;;13.10;1.23;;;;;;;;;;5102995;28;20487;-72
2022/04/02 12:33:33;;;;;;;12.17;1.10;;;;;;;;;;5091844;28;20460;-72
2022/04/02 12:36:01;;;;;;;13.80;1.77;;;;;;;;;;5091825;28;20445;-72
2022/04/02 12:38:30;;;;;;;13.60;1.40;;;;;;;;;;5091771;28;20453;-72
2022/04/02 12:40:58;;;;;;;14.53;1.20;;;;;;;;;;5091569;28;20446;-72
2022/04/02 12:43:26;;;;;;;13.30;1.20;;;;;;;;;;5091551;28;20577;-72
2022/04/02 12:45:54;;;;;;;12.50;1.10;;;;;;;;;;5084590;28;20958;-73
2022/04/02 12:48:24;;;;;;;13.17;1.20;;;;;;;;;;5091680;28;20454;-73
2022/04/02 12:50:54;;;;;;;13.50;1.47;;;;;;;;;;5091563;28;20450;-74
2022/04/02 12:53:31;;;;;;;14.00;1.40;;;;;;;;;;5090754;28;20456;-73
2022/04/02 12:55:59;;;;;;;14.70;1.87;;;;;;;;;;5091802;28;20831;-74
2022/04/02 12:58:34;;;;;;;12.13;1.03;;;;;;;;;;5091318;28;20954;-73
2022/04/02 13:01:12;;;;;;;12.57;1.00;;;;;;;;;;5091250;28;20450;-73
2022/04/02 13:03:44;;;;;;;13.43;1.87;;;;;;;;;;5091466;28;20872;-72
2022/04/02 13:06:22;;;;;;;12.40;1.20;;;;;;;;;;5091324;28;20523;-72
2022/04/02 13:08:58;;;;;;;12.20;1.13;;;;;;;;;;5110971;28;20477;-71
2022/04/02 13:11:33;;;;;;;17.10;1.20;;;;;;;;;;5110909;28;20973;-71
2022/04/02 13:14:04;;;;;;;12.73;1.17;;;;;;;;;;5110956;28;20469;-71
2022/04/02 13:16:36;;;;;;;13.50;1.20;;;;;;;;;;5084578;28;20954;-71
2022/04/02 13:21:52;;;;;;;15.03;1.37;;;;;;;;;;5110781;28;20430;-70
2022/04/02 13:24:30;;;;;;;11.87;1.00;;;;;;;;;;5111826;28;21005;-71
2022/04/02 13:27:10;;;;;;;13.10;1.20;;;;;;;;;;5114840;28;20526;-71
2022/04/02 13:29:44;;;;;;;16.50;1.40;;;;;;;;;;5110509;28;20826;-71
2022/04/02 13:32:17;;;;;;;12.87;1.20;;;;;;;;;;5098464;28;20471;-71
2022/04/02 13:34:48;;;;;;;12.93;1.20;;;;;;;;;;5095130;28;20985;-71
2022/04/02 13:37:21;;;;;;;16.70;2.20;;;;;;;;;;5110483;28;20505;-71
2022/04/02 13:39:53;;;;;;;13.13;1.10;;;;;;;;;;5114652;28;20978;-72
2022/04/02 13:42:28;;;;;;;13.97;1.80;;;;;;;;;;5114805;28;20450;-71
2022/04/02 13:44:58;;;;;;;15.67;2.30;;;;;;;;;;5114485;28;20475;-72
2022/04/02 13:47:27;;;;;;;23.23;3.30;;;;;;;;;;5100783;28;20958;-73
2022/04/02 13:49:57;;;;;;;21.63;4.13;;;;;;;;;;5096424;28;20453;-72
2022/04/02 13:52:26;;;;;;;16.13;2.13;;;;;;;;;;5103770;28;20816;-72
2022/04/02 13:55:00;;;;;;;13.63;1.43;;;;;;;;;;5097337;28;20450;-71
2022/04/02 13:57:32;;;;;;;16.63;1.37;;;;;;;;;;5094700;28;20450;-72
2022/04/02 14:00:04;;;;;;;17.10;2.90;;;;;;;;;;5094591;28;20445;-71
2022/04/02 14:02:32;;;;;;;15.67;2.80;;;;;;;;;;5093048;28;20454;-72
2022/04/02 14:05:03;;;;;;;18.93;2.47;;;;;;;;;;5090002;28;21082;-69
2022/04/02 14:07:34;;;;;;;17.33;2.00;;;;;;;;;;5095128;28;20495;-69
2022/04/02 14:10:08;;;;;;;13.80;1.43;;;;;;;;;;5097341;28;20442;-71
2022/04/02 14:12:39;;;;;;;17.60;1.80;;;;;;;;;;5106637;28;20449;-71
2022/04/02 14:15:09;;;;;;;20.40;2.80;;;;;;;;;;5099840;28;20449;-70
2022/04/02 14:17:41;;;;;;;13.47;1.47;;;;;;;;;;5095732;28;20484;-71
2022/04/02 14:20:09;;;;;;;16.47;1.80;;;;;;;;;;5095438;28;20434;-69
2022/04/02 14:22:42;;;;;;;20.90;2.80;;;;;;;;;;5096398;28;20467;-71
2022/04/02 14:25:14;;;;;;;15.83;1.97;;;;;;;;;;5094320;28;20488;-69
2022/04/02 14:28:00;;;;;;;12.83;1.70;;;;;;;;;;5096406;28;20452;-70
2022/04/02 14:30:40;;;;;;;18.10;2.37;;;;;;;;;;5094603;28;20446;-70
2022/04/02 14:33:26;;;;;;;19.73;2.43;;;;;;;;;;5095913;28;20457;-70
2022/04/02 14:36:17;;;;;;;13.90;1.60;;;;;;;;;;5088946;28;20527;-69
2022/04/02 14:39:05;;;;;;;65.90;24.53;;;;;;;;;;5093957;28;20472;-70
2022/04/02 14:41:44;;;;;;;15.00;1.60;;;;;;;;;;5104857;28;20444;-70
2022/04/02 14:44:30;;;;;;;13.80;1.57;;;;;;;;;;5094546;28;20841;-70
2022/04/02 14:47:13;;;;;;;14.37;1.77;;;;;;;;;;5093091;28;20453;-70
2022/04/02 14:50:04;;;;;;;18.63;2.43;;;;;;;;;;5092539;28;20441;-70
2022/04/02 14:52:50;;;;;;;14.77;2.30;;;;;;;;;;5093864;28;20444;-68
2022/04/02 14:55:31;;;;;;;18.30;2.50;;;;;;;;;;5093673;28;20442;-69
2022/04/02 14:58:17;;;;;;;15.07;2.07;;;;;;;;;;5092647;28;20448;-69